createdAt,value
2019-04-27T00:02:27.652Z,93509.49
2019-04-27T00:05:14.440Z,93507.92
2019-04-27T00:07:44.276Z,93505.54
2019-04-27T00:10:14.196Z,93513.07
2019-04-27T00:12:42.915Z,93499.27
2019-04-27T00:15:13.223Z,93499.00
2019-04-27T00:17:59.862Z,93499.53
2019-04-27T00:20:35.215Z,93505.01
2019-04-27T00:23:11.015Z,93515.46
2019-04-27T00:25:39.301Z,93517.08
2019-04-27T00:28:07.552Z,93507.50
2019-04-27T00:30:35.899Z,93514.53
2019-04-27T00:33:05.407Z,93514.80
2019-04-27T00:35:38.267Z,93515.09
2019-04-27T00:38:11.130Z,93515.58
2019-04-27T00:40:41.044Z,93515.89
2019-04-27T00:43:09.313Z,93511.98
2019-04-27T00:45:38.165Z,93503.43
2019-04-27T00:48:06.423Z,93503.47
2019-04-27T00:50:34.691Z,93505.80
2019-04-27T00:53:03.505Z,93501.64
2019-04-27T00:55:33.364Z,93501.69
2019-04-27T00:58:18.519Z,93503.25
2019-04-27T01:00:48.436Z,93497.25
2019-04-27T01:03:33.320Z,93499.03
2019-04-27T01:06:03.262Z,93495.39
2019-04-27T01:08:31.652Z,93491.99
2019-04-27T01:11:00.018Z,93489.40
2019-04-27T01:13:29.487Z,93495.12
2019-04-27T01:15:57.785Z,93493.57
2019-04-27T01:18:26.065Z,93495.67
2019-04-27T01:20:54.321Z,93493.34
2019-04-27T01:23:22.607Z,93494.38
2019-04-27T01:25:54.954Z,93496.22
2019-04-27T01:28:30.564Z,93497.78
2019-04-27T01:31:06.415Z,93493.88
2019-04-27T01:33:34.676Z,93496.52
2019-04-27T01:36:02.927Z,93502.45
2019-04-27T01:38:31.283Z,93498.09
2019-04-27T01:41:00.632Z,93497.56
2019-04-27T01:43:30.242Z,93498.09
2019-04-27T01:46:00.959Z,93504.34
2019-04-27T01:48:30.576Z,93499.13
2019-04-27T01:50:59.374Z,93501.99
2019-04-27T01:53:28.619Z,93503.30
2019-04-27T01:55:59.195Z,93503.48
2019-04-27T01:58:26.906Z,93504.78
2019-04-27T02:00:56.808Z,93503.48
2019-04-27T02:03:35.498Z,93503.20
2019-04-27T02:06:03.747Z,93500.83
2019-04-27T02:08:32.032Z,93499.03
2019-04-27T02:11:00.276Z,93505.01
2019-04-27T02:13:29.046Z,93502.45
2019-04-27T02:15:58.836Z,93501.45
2019-04-27T02:18:36.931Z,93497.28
2019-04-27T02:20:59.038Z,93491.09
2019-04-27T02:23:29.224Z,93500.97
2019-04-27T02:25:58.554Z,93504.38
2019-04-27T02:28:29.492Z,93504.16
2019-04-27T02:31:15.831Z,93494.55
2019-04-27T02:33:51.753Z,93500.87
2019-04-27T02:36:20.277Z,93495.67
2019-04-27T02:38:49.276Z,93492.59
2019-04-27T02:41:19.785Z,93472.80
2019-04-27T02:43:52.284Z,93479.08
2019-04-27T02:46:20.590Z,93486.72
2019-04-27T02:48:58.677Z,93496.64
2019-04-27T02:51:29.986Z,93491.16
2019-04-27T02:54:00.512Z,93490.36
2019-04-27T02:56:30.594Z,93495.61
2019-04-27T02:58:59.607Z,93489.09
2019-04-27T03:01:30.532Z,93488.59
2019-04-27T03:04:00.246Z,93487.05
2019-04-27T03:06:30.006Z,93495.67
2019-04-27T03:09:00.518Z,93497.00
2019-04-27T03:11:30.682Z,93495.44
2019-04-27T03:14:28.313Z,93491.52
2019-04-27T03:16:44.220Z,93487.11
2019-04-27T03:19:26.089Z,93488.17
2019-04-27T03:21:59.343Z,93485.09
2019-04-27T03:24:45.487Z,93486.42
2019-04-27T03:27:15.386Z,93483.02
2019-04-27T03:29:43.667Z,93481.47
2019-04-27T03:32:13.042Z,93483.56
2019-04-27T03:34:42.157Z,93480.45
2019-04-27T03:37:10.598Z,93482.02
2019-04-27T03:39:39.729Z,93473.69
2019-04-27T03:42:10.408Z,93476.02
2019-04-27T03:44:39.849Z,93471.09
2019-04-27T03:47:09.982Z,93475.00
2019-04-27T03:49:41.245Z,93478.91
2019-04-27T03:52:20.884Z,93477.88
2019-04-27T03:55:10.355Z,93471.89
2019-04-27T03:57:40.380Z,93472.14
2019-04-27T04:00:21.265Z,93477.38
2019-04-27T04:02:50.203Z,93471.64
2019-04-27T04:05:19.868Z,93476.84
2019-04-27T04:07:50.359Z,93472.70
2019-04-27T04:10:19.778Z,93472.19
2019-04-27T04:12:55.934Z,93470.61
2019-04-27T04:15:24.319Z,93472.16
2019-04-27T04:17:52.561Z,93463.28
2019-04-27T04:20:20.828Z,93479.20
2019-04-27T04:22:51.460Z,93477.10
2019-04-27T04:25:20.020Z,93475.55
2019-04-27T04:27:50.701Z,93475.02
2019-04-27T04:30:19.960Z,93473.73
2019-04-27T04:32:51.609Z,93468.25
2019-04-27T04:35:21.297Z,93481.05
2019-04-27T04:37:52.726Z,93486.00
2019-04-27T04:40:23.130Z,93482.88
2019-04-27T04:42:56.198Z,93481.06
2019-04-27T04:45:42.977Z,93489.12
2019-04-27T04:48:15.562Z,93482.62
2019-04-27T04:50:43.823Z,93497.75
2019-04-27T04:53:12.841Z,93492.54
2019-04-27T04:55:41.339Z,93500.09
2019-04-27T04:58:09.605Z,93498.55
2019-04-27T05:00:40.092Z,93491.23
2019-04-27T05:03:09.398Z,93495.16
2019-04-27T05:05:41.079Z,93499.36
2019-04-27T05:08:09.109Z,93494.41
2019-04-27T05:10:36.837Z,93500.41
2019-04-27T05:13:05.108Z,93497.28
2019-04-27T05:15:33.387Z,93498.32
2019-04-27T05:18:01.656Z,93502.26
2019-04-27T05:20:40.240Z,93509.80
2019-04-27T05:23:09.672Z,93509.56
2019-04-27T05:25:39.016Z,93513.22
2019-04-27T05:28:07.475Z,93517.41
2019-04-27T05:30:35.754Z,93506.95
2019-04-27T05:33:04.056Z,93509.81
2019-04-27T05:35:32.304Z,93515.30
2019-04-27T05:38:07.076Z,93517.66
2019-04-27T05:40:31.143Z,93522.09
2019-04-27T05:42:59.442Z,93520.02
2019-04-27T05:45:57.718Z,93518.17
2019-04-27T05:48:27.823Z,93520.27
2019-04-27T05:50:58.901Z,93527.08
2019-04-27T05:53:26.950Z,93527.58
2019-04-27T05:55:55.205Z,93525.75
2019-04-27T05:58:23.475Z,93530.47
2019-04-27T06:00:51.724Z,93525.73
2019-04-27T06:03:21.010Z,93525.23
2019-04-27T06:05:49.348Z,93522.87
2019-04-27T06:08:18.752Z,93517.14
2019-04-27T06:10:48.925Z,93515.53
2019-04-27T06:13:18.998Z,93514.99
2019-04-27T06:15:47.343Z,93514.46
2019-04-27T06:18:15.616Z,93517.09
2019-04-27T06:20:53.350Z,93505.58
2019-04-27T06:23:13.863Z,93508.47
2019-04-27T06:25:42.107Z,93501.91
2019-04-27T06:28:10.409Z,93501.91
2019-04-27T06:30:39.160Z,93504.75
2019-04-27T06:33:09.271Z,93512.81
2019-04-27T06:35:37.487Z,93505.14
2019-04-27T06:38:05.756Z,93503.41
2019-04-27T06:40:35.455Z,93498.70
2019-04-27T06:43:04.055Z,93496.06
2019-04-27T06:45:32.310Z,93503.13
2019-04-27T06:48:00.589Z,93496.76
2019-04-27T06:50:29.594Z,93497.98
2019-04-27T06:52:59.033Z,93497.98
2019-04-27T06:55:29.023Z,93501.06
2019-04-27T06:57:58.781Z,93493.14
2019-04-27T07:00:28.926Z,93496.05
2019-04-27T07:02:57.275Z,93489.21
2019-04-27T07:05:25.581Z,93498.33
2019-04-27T07:07:53.858Z,93489.92
2019-04-27T07:10:22.115Z,93489.92
2019-04-27T07:12:50.410Z,93487.88
2019-04-27T07:15:20.446Z,93482.47
2019-04-27T07:17:48.803Z,93490.58
2019-04-27T07:20:18.914Z,93494.32
2019-04-27T07:22:47.305Z,93494.27
2019-04-27T07:25:15.588Z,93498.70
2019-04-27T07:27:43.840Z,93501.84
2019-04-27T07:30:12.699Z,93501.33
2019-04-27T07:32:40.976Z,93506.20
2019-04-27T07:35:09.846Z,93487.08
2019-04-27T07:37:39.321Z,93489.98
2019-04-27T07:40:09.045Z,93498.20
2019-04-27T07:42:40.866Z,93514.75
2019-04-27T07:45:23.983Z,93514.28
2019-04-27T07:47:53.873Z,93514.25
2019-04-27T07:50:22.149Z,93512.94
2019-04-27T07:52:50.397Z,93523.05
2019-04-27T07:55:18.814Z,93515.72
2019-04-27T07:57:47.019Z,93517.78
2019-04-27T08:00:16.161Z,93518.06
2019-04-27T08:02:44.417Z,93519.94
2019-04-27T08:05:12.709Z,93511.09
2019-04-27T08:07:40.959Z,93507.98
2019-04-27T08:10:09.855Z,93507.20
2019-04-27T08:12:38.699Z,93503.56
2019-04-27T08:15:08.828Z,93507.73
2019-04-27T08:17:37.397Z,93506.63
2019-04-27T08:20:07.144Z,93495.30
2019-04-27T08:22:35.393Z,93490.59
2019-04-27T08:25:04.002Z,93490.91
2019-04-27T08:27:42.556Z,93491.19
2019-04-27T08:30:21.448Z,93491.19
2019-04-27T08:32:54.205Z,93488.50
2019-04-27T08:35:22.477Z,93478.78
2019-04-27T08:37:50.724Z,93487.58
2019-04-27T08:40:19.381Z,93477.02
2019-04-27T08:42:49.179Z,93483.26
2019-04-27T08:45:19.311Z,93480.62
2019-04-27T08:47:49.772Z,93484.89
2019-04-27T08:50:19.059Z,93482.42
2019-04-27T08:52:47.506Z,93481.34
2019-04-27T08:55:15.779Z,93480.40
2019-04-27T08:57:44.094Z,93483.89
2019-04-27T09:00:12.363Z,93488.98
2019-04-27T09:02:46.738Z,93476.48
2019-04-27T09:05:10.626Z,93464.92
2019-04-27T09:07:43.214Z,93469.00
2019-04-27T09:10:29.401Z,93477.37
2019-04-27T09:13:11.357Z,93473.45
2019-04-27T09:15:53.282Z,93468.91
2019-04-27T09:18:23.249Z,93472.85
2019-04-27T09:20:53.184Z,93464.68
2019-04-27T09:23:21.445Z,93465.49
2019-04-27T09:25:49.805Z,93460.16
2019-04-27T09:28:20.273Z,93463.41
2019-04-27T09:30:49.808Z,93456.70
2019-04-27T09:33:18.192Z,93449.58
2019-04-27T09:35:46.688Z,93448.26
2019-04-27T09:38:14.903Z,93451.30
2019-04-27T09:40:43.184Z,93448.69
2019-04-27T09:43:11.430Z,93454.55
2019-04-27T09:45:40.195Z,93455.33
2019-04-27T09:48:08.623Z,93469.54
2019-04-27T09:50:36.905Z,93455.86
2019-04-27T09:53:06.394Z,93456.52
2019-04-27T09:55:36.707Z,93457.09
2019-04-27T09:58:05.746Z,93467.77
2019-04-27T10:00:34.157Z,93457.26
2019-04-27T10:03:02.418Z,93464.01
2019-04-27T10:05:30.676Z,93475.41
2019-04-27T10:07:58.954Z,93483.54
2019-04-27T10:10:27.208Z,93477.25
2019-04-27T10:12:56.814Z,93479.59
2019-04-27T10:15:26.463Z,93482.30
2019-04-27T10:17:56.032Z,93464.17
2019-04-27T10:20:24.470Z,93502.02
2019-04-27T10:22:52.867Z,93477.97
2019-04-27T10:25:22.805Z,93491.69
2019-04-27T10:27:52.790Z,93489.16
2019-04-27T10:30:21.042Z,93493.39
2019-04-27T10:32:49.324Z,93499.97
2019-04-27T10:35:17.576Z,93482.94
2019-04-27T10:37:45.841Z,93486.29
2019-04-27T10:40:14.096Z,93492.14
2019-04-27T10:42:42.364Z,93490.64
2019-04-27T10:45:12.254Z,93491.91
2019-04-27T10:47:40.541Z,93486.03
2019-04-27T10:50:08.790Z,93481.02
2019-04-27T10:52:52.597Z,93488.14
2019-04-27T10:55:09.751Z,93479.48
2019-04-27T10:57:38.043Z,93470.26
2019-04-27T11:00:08.498Z,93470.77
2019-04-27T11:02:36.768Z,93478.02
2019-04-27T11:05:08.012Z,93475.91
2019-04-27T11:07:38.061Z,93473.99
2019-04-27T11:10:07.573Z,93463.77
2019-04-27T11:12:35.426Z,93458.70
2019-04-27T11:15:05.876Z,93463.24
2019-04-27T11:17:34.618Z,93455.44
2019-04-27T11:20:03.741Z,93452.48
2019-04-27T11:22:31.999Z,93448.19
2019-04-27T11:25:00.283Z,93440.96
2019-04-27T11:27:28.530Z,93445.53
2019-04-27T11:29:56.801Z,93456.34
2019-04-27T11:32:25.046Z,93443.59
2019-04-27T11:35:00.670Z,93456.91
2019-04-27T11:37:33.274Z,93443.53
2019-04-27T11:40:01.550Z,93445.84
2019-04-27T11:42:29.824Z,93452.11
2019-04-27T11:44:58.429Z,93453.66
2019-04-27T11:47:27.498Z,93441.30
2019-04-27T11:49:57.935Z,93453.05
2019-04-27T11:52:26.339Z,93451.83
2019-04-27T11:54:55.723Z,93469.59
2019-04-27T11:57:24.053Z,93465.95
2019-04-27T11:59:52.370Z,93454.02
2019-04-27T12:02:20.648Z,93459.88
2019-04-27T12:04:48.926Z,93457.33
2019-04-27T12:07:17.186Z,93445.52
2019-04-27T12:09:46.242Z,93437.13
2019-04-27T12:12:21.522Z,93422.70
2019-04-27T12:14:47.341Z,93436.97
2019-04-27T12:17:16.517Z,93425.16
2019-04-27T12:19:46.498Z,93419.69
2019-04-27T12:22:16.274Z,93428.55
2019-04-27T12:24:45.733Z,93418.25
2019-04-27T12:27:21.514Z,93419.66
2019-04-27T12:30:07.627Z,93414.36
2019-04-27T12:32:36.119Z,93416.83
2019-04-27T12:35:06.740Z,93405.06
2019-04-27T12:37:35.728Z,93403.69
2019-04-27T12:40:08.059Z,93400.87
2019-04-27T12:42:36.486Z,93387.45
2019-04-27T12:45:06.702Z,93404.81
2019-04-27T12:47:36.505Z,93402.25
2019-04-27T12:50:12.720Z,93398.70
2019-04-27T12:52:42.446Z,93389.80
2019-04-27T12:55:16.853Z,93402.05
2019-04-27T12:57:48.727Z,93388.18
2019-04-27T13:00:18.666Z,93395.84
2019-04-27T13:02:46.959Z,93400.68
2019-04-27T13:05:15.820Z,93393.21
2019-04-27T13:07:44.155Z,93400.51
2019-04-27T13:10:15.924Z,93394.00
2019-04-27T13:12:45.977Z,93394.55
2019-04-27T13:15:14.400Z,93400.05
2019-04-27T13:17:42.663Z,93384.46
2019-04-27T13:20:10.941Z,93386.69
2019-04-27T13:22:39.204Z,93387.13
2019-04-27T13:25:09.105Z,93378.41
2019-04-27T13:27:37.366Z,93379.50
2019-04-27T13:30:07.414Z,93378.66
2019-04-27T13:32:37.172Z,93372.14
2019-04-27T13:35:08.265Z,93375.48
2019-04-27T13:37:44.055Z,93371.70
2019-04-27T13:40:17.010Z,93377.92
2019-04-27T13:42:53.775Z,93362.24
2019-04-27T13:45:26.686Z,93367.20
2019-04-27T13:47:58.972Z,93353.33
2019-04-27T13:50:28.893Z,93353.63
2019-04-27T13:52:57.158Z,93353.67
2019-04-27T13:55:27.326Z,93359.08
2019-04-27T13:57:55.603Z,93357.06
2019-04-27T14:00:23.869Z,93338.41
2019-04-27T14:02:53.561Z,93322.97
2019-04-27T14:05:21.252Z,93322.97
2019-04-27T14:07:49.542Z,93328.49
2019-04-27T14:10:18.263Z,93322.41
2019-04-27T14:12:48.900Z,93310.23
2019-04-27T14:15:18.697Z,93307.32
2019-04-27T14:17:46.983Z,93313.58
2019-04-27T14:20:15.402Z,93302.67
2019-04-27T14:22:43.730Z,93294.30
2019-04-27T14:25:12.058Z,93292.44
2019-04-27T14:27:41.426Z,93274.12
2019-04-27T14:30:11.343Z,93278.88
2019-04-27T14:32:42.167Z,93275.24
2019-04-27T14:35:09.590Z,93271.36
2019-04-27T14:37:38.824Z,93274.31
2019-04-27T14:40:08.505Z,93264.72
2019-04-27T14:42:36.985Z,93253.95
2019-04-27T14:45:09.005Z,93252.64
2019-04-27T14:47:38.254Z,93244.89
2019-04-27T14:50:08.850Z,93230.70
2019-04-27T14:52:39.079Z,93228.60
2019-04-27T14:55:08.582Z,93232.73
2019-04-27T14:57:37.040Z,93227.88
2019-04-27T15:00:05.967Z,93220.59
2019-04-27T15:02:34.260Z,93218.33
2019-04-27T15:05:02.521Z,93216.41
2019-04-27T15:07:30.791Z,93218.27
2019-04-27T15:09:59.036Z,93214.98
2019-04-27T15:12:30.809Z,93216.25
2019-04-27T15:14:59.017Z,93211.78
2019-04-27T15:17:27.449Z,93210.23
2019-04-27T15:19:57.389Z,93208.92
2019-04-27T15:22:27.304Z,93207.80
2019-04-27T15:25:09.053Z,93209.16
2019-04-27T15:27:34.316Z,93207.96
2019-04-27T15:30:03.056Z,93194.43
2019-04-27T15:32:45.042Z,93195.14
2019-04-27T15:35:20.892Z,93185.14
2019-04-27T15:37:49.126Z,93189.93
2019-04-27T15:40:21.756Z,93190.34
2019-04-27T15:42:54.670Z,93186.95
2019-04-27T15:45:24.336Z,93184.78
2019-04-27T15:47:54.760Z,93178.81
2019-04-27T15:50:23.432Z,93169.23
2019-04-27T15:52:52.944Z,93165.05
2019-04-27T15:55:32.101Z,93158.36
2019-04-27T15:57:51.202Z,93169.42
2019-04-27T16:00:21.128Z,93175.91
2019-04-27T16:02:52.745Z,93168.91
2019-04-27T16:05:19.428Z,93172.02
2019-04-27T16:07:47.970Z,93169.92
2019-04-27T16:10:17.731Z,93157.47
2019-04-27T16:13:02.513Z,93167.17
2019-04-27T16:15:17.579Z,93164.59
2019-04-27T16:17:53.334Z,93152.58
2019-04-27T16:20:22.421Z,93163.69
2019-04-27T16:22:48.678Z,93161.73
2019-04-27T16:25:16.404Z,93173.80
2019-04-27T16:27:44.662Z,93173.19
2019-04-27T16:30:17.831Z,93185.52
2019-04-27T16:32:44.490Z,93186.47
2019-04-27T16:35:13.969Z,93201.75
2019-04-27T16:37:56.319Z,93200.91
2019-04-27T16:40:24.548Z,93241.94
2019-04-27T16:42:54.522Z,93229.95
2019-04-27T16:45:22.864Z,93210.28
2019-04-27T16:47:52.083Z,93201.88
2019-04-27T16:50:28.861Z,93208.77
2019-04-27T16:53:00.770Z,93222.31
2019-04-27T16:55:28.070Z,93232.59
2019-04-27T16:57:57.953Z,93245.97
2019-04-27T17:00:30.226Z,93280.80
2019-04-27T17:03:01.300Z,93302.04
2019-04-27T17:05:30.844Z,93304.53
2019-04-27T17:07:57.419Z,93322.06
2019-04-27T17:10:27.128Z,93337.49
2019-04-27T17:12:58.738Z,93313.50
2019-04-27T17:15:46.194Z,93327.67
2019-04-27T17:18:19.889Z,93326.14
2019-04-27T17:20:52.616Z,93318.33
2019-04-27T17:23:31.645Z,93329.55
2019-04-27T17:26:09.364Z,93325.63
2019-04-27T17:28:39.272Z,93317.81
2019-04-27T17:31:08.796Z,93309.73
2019-04-27T17:33:44.482Z,93313.14
2019-04-27T17:36:12.079Z,93317.88
2019-04-27T17:38:42.660Z,93325.70
2019-04-27T17:41:12.735Z,93326.43
2019-04-27T17:43:41.555Z,93324.61
2019-04-27T17:46:11.531Z,93346.56
2019-04-27T17:48:40.862Z,93357.28
2019-04-27T17:51:09.336Z,93363.03
2019-04-27T17:53:37.757Z,93370.11
2019-04-27T17:56:06.293Z,93387.64
2019-04-27T17:58:39.641Z,93409.34
2019-04-27T18:01:08.421Z,93396.81
2019-04-27T18:03:38.643Z,93414.28
2019-04-27T18:06:08.543Z,93421.61
2019-04-27T18:08:40.100Z,93434.91
2019-04-27T18:11:08.638Z,93430.95
2019-04-27T18:13:38.810Z,93447.61
2019-04-27T18:16:08.984Z,93461.67
2019-04-27T18:18:40.325Z,93458.01
2019-04-27T18:21:08.877Z,93446.53
2019-04-27T18:23:38.772Z,93462.37
2019-04-27T18:26:08.700Z,93472.28
2019-04-27T18:28:45.844Z,93453.98
2019-04-27T18:31:16.051Z,93474.27
2019-04-27T18:33:44.649Z,93470.80
2019-04-27T18:36:14.308Z,93485.09
2019-04-27T18:38:43.577Z,93491.56
2019-04-27T18:41:11.902Z,93490.26
2019-04-27T18:43:46.588Z,93499.30
2019-04-27T18:46:10.450Z,93502.66
2019-04-27T18:48:50.253Z,93507.84
2019-04-27T18:51:28.900Z,93502.94
2019-04-27T18:54:02.099Z,93507.37
2019-04-27T18:56:29.082Z,93522.99
2019-04-27T18:58:59.793Z,93532.38
2019-04-27T19:01:28.921Z,93534.17
2019-04-27T19:03:58.636Z,93536.55
2019-04-27T19:06:28.896Z,93540.64
2019-04-27T19:08:58.981Z,93540.64
2019-04-27T19:11:28.957Z,93555.00
2019-04-27T19:13:56.943Z,93552.95
2019-04-27T19:16:25.233Z,93546.20
2019-04-27T19:18:53.765Z,93545.67
2019-04-27T19:21:22.043Z,93545.66
2019-04-27T19:23:50.299Z,93545.13
2019-04-27T19:26:20.608Z,93553.92
2019-04-27T19:29:05.891Z,93553.48
2019-04-27T19:31:35.878Z,93555.18
2019-04-27T19:34:12.289Z,93555.89
2019-04-27T19:36:40.562Z,93558.76
2019-04-27T19:39:10.451Z,93564.29
2019-04-27T19:41:38.729Z,93560.39
2019-04-27T19:44:09.909Z,93565.87
2019-04-27T19:46:36.997Z,93557.56
2019-04-27T19:49:05.242Z,93561.77
2019-04-27T19:51:33.491Z,93563.88
2019-04-27T19:54:01.769Z,93566.72
2019-04-27T19:56:30.398Z,93568.28
2019-04-27T19:59:00.308Z,93565.45
2019-04-27T20:01:38.325Z,93569.63
2019-04-27T20:04:23.191Z,93581.38
2019-04-27T20:06:51.487Z,93591.22
2019-04-27T20:09:33.390Z,93601.81
2019-04-27T20:12:02.896Z,93614.06
2019-04-27T20:14:33.719Z,93620.52
2019-04-27T20:17:02.811Z,93626.66
2019-04-27T20:19:41.553Z,93619.59
2019-04-27T20:22:10.743Z,93621.53
2019-04-27T20:24:38.985Z,93620.17
2019-04-27T20:27:07.256Z,93628.04
2019-04-27T20:29:35.526Z,93628.04
2019-04-27T20:32:04.621Z,93630.84
2019-04-27T20:34:33.192Z,93627.50
2019-04-27T20:37:01.692Z,93631.52
2019-04-27T20:39:30.034Z,93642.41
2019-04-27T20:41:58.244Z,93642.61
2019-04-27T20:44:26.522Z,93639.47
2019-04-27T20:46:54.788Z,93646.16
2019-04-27T20:49:23.377Z,93657.05
2019-04-27T20:52:00.941Z,93651.44
2019-04-27T20:54:30.613Z,93652.05
2019-04-27T20:56:59.329Z,93658.89
2019-04-27T20:59:28.086Z,93659.64
2019-04-27T21:01:57.971Z,93663.81
2019-04-27T21:04:36.850Z,93674.85
2019-04-27T21:07:06.787Z,93675.75
2019-04-27T21:09:35.061Z,93676.92
2019-04-27T21:12:05.178Z,93685.12
2019-04-27T21:14:35.672Z,93686.34
2019-04-27T21:17:04.205Z,93695.95
2019-04-27T21:19:34.396Z,93686.29
2019-04-27T21:22:03.529Z,93706.07
2019-04-27T21:24:32.746Z,93707.56
2019-04-27T21:27:01.355Z,93707.76
2019-04-27T21:29:31.185Z,93713.70
2019-04-27T21:32:01.066Z,93713.86
2019-04-27T21:34:28.810Z,93714.11
2019-04-27T21:36:57.067Z,93721.91
2019-04-27T21:39:25.361Z,93719.59
2019-04-27T21:41:53.621Z,93715.62
2019-04-27T21:44:21.955Z,93718.21
2019-04-27T21:46:51.861Z,93716.36
2019-04-27T21:49:21.918Z,93713.55
2019-04-27T21:54:52.601Z,93712.63
2019-04-27T21:57:21.099Z,93718.06
2019-04-27T21:59:49.329Z,93721.22
2019-04-27T22:02:19.449Z,93729.80
2019-04-27T22:04:47.723Z,93731.04
2019-04-27T22:07:15.993Z,93729.47
2019-04-27T22:09:44.271Z,93728.01
2019-04-27T22:12:12.529Z,93723.87
2019-04-27T22:14:40.804Z,93720.72
2019-04-27T22:17:10.891Z,93719.10
2019-04-27T22:19:39.054Z,93723.93
2019-04-27T22:22:10.652Z,93714.36
2019-04-27T22:24:42.814Z,93716.67
2019-04-27T22:27:09.576Z,93711.88
2019-04-27T22:29:37.881Z,93713.00
2019-04-27T22:32:06.199Z,93715.53
2019-04-27T22:34:34.480Z,93717.84
2019-04-27T22:37:02.846Z,93718.59
2019-04-27T22:39:35.968Z,93719.67
2019-04-27T22:42:05.861Z,93710.92
2019-04-27T22:47:13.002Z,93706.11
2019-04-27T22:49:41.243Z,93698.33
2019-04-27T22:52:09.503Z,93708.77
2019-04-27T22:54:37.765Z,93705.46
2019-04-27T22:57:07.684Z,93700.48
2019-04-27T22:59:52.493Z,93698.70
2019-04-27T23:02:29.387Z,93694.34
2019-04-27T23:04:59.401Z,93697.21
2019-04-27T23:07:27.646Z,93701.84
2019-04-27T23:09:55.924Z,93702.67
2019-04-27T23:12:24.163Z,93693.07
2019-04-27T23:14:52.440Z,93698.07
2019-04-27T23:17:38.446Z,93700.91
2019-04-27T23:20:07.564Z,93694.98
2019-04-27T23:22:35.814Z,93693.16
2019-04-27T23:25:06.250Z,93686.39
2019-04-27T23:27:34.494Z,93684.05
2019-04-27T23:30:02.814Z,93680.92
2019-04-27T23:32:32.745Z,93691.55
2019-04-27T23:35:00.994Z,93681.30
2019-04-27T23:37:29.264Z,93695.30
2019-04-27T23:39:57.525Z,93689.83
2019-04-27T23:42:25.813Z,93687.67
2019-04-27T23:44:54.078Z,93682.61
2019-04-27T23:47:22.356Z,93676.02
2019-04-27T23:49:50.919Z,93680.59
2019-04-27T23:52:23.696Z,93679.91
2019-04-27T23:54:51.944Z,93677.78
2019-04-27T23:57:21.790Z,93676.91
2019-04-27T23:59:51.499Z,93677.80
